Time;durP1;ratioP1;P1;durP2;ratioP2;P2;SDS_P1;SDS_P2;PMS_P1;PMS_P2;Temp;Humidity;BMP_temperature;BMP_pressure;BME280_temperature;BME280_humidity;BME280_pressure;Samples;Min_cycle;Max_cycle;Signal;HPM_P1;HPM_P2
2022/02/16 00:00:55;;;;;;;43.60;22.73;;;;;;;2.46;74.76;100876.67;126352;1096;104190;-78
2022/02/16 00:03:27;;;;;;;41.33;22.67;;;;;;;2.46;74.63;100871.48;126327;1096;104347;-78
2022/02/16 00:05:58;;;;;;;38.43;21.17;;;;;;;2.43;74.34;100861.83;126371;1096;104622;-78
2022/02/16 00:08:30;;;;;;;40.40;22.03;;;;;;;2.42;74.68;100864.30;126341;1096;104222;-78
2022/02/16 00:11:01;;;;;;;42.30;22.27;;;;;;;2.37;74.71;100866.55;126327;1096;104239;-78
2022/02/16 00:13:33;;;;;;;41.50;21.90;;;;;;;2.37;75.18;100860.45;126330;1099;104200;-78
2022/02/16 00:16:08;;;;;;;41.00;22.33;;;;;;;2.36;74.82;100856.97;126313;1099;104261;-79
2022/02/16 00:18:41;;;;;;;42.13;22.17;;;;;;;2.33;74.79;100855.03;126387;1099;104156;-79
2022/02/16 00:21:12;;;;;;;45.43;21.53;;;;;;;2.30;75.18;100846.16;126279;1099;104152;-79
2022/02/16 00:23:44;;;;;;;43.60;22.37;;;;;;;2.29;75.15;100849.52;126335;1096;104143;-79
2022/02/16 00:26:15;;;;;;;43.07;22.40;;;;;;;2.27;75.07;100851.10;126346;1096;104169;-79
2022/02/16 00:28:47;;;;;;;39.77;21.53;;;;;;;2.26;75.21;100846.70;126312;1096;104245;-79
2022/02/16 00:31:18;;;;;;;41.43;21.00;;;;;;;2.26;74.93;100844.11;126290;1096;104258;-79
2022/02/16 00:33:49;;;;;;;41.30;21.53;;;;;;;2.26;74.98;100841.52;126346;1099;104223;-78
2022/02/16 00:36:21;;;;;;;43.03;22.57;;;;;;;2.27;74.60;100853.69;126343;1098;104294;-78
2022/02/16 00:38:52;;;;;;;40.20;21.47;;;;;;;2.28;74.85;100847.73;126386;1099;104171;-80
2022/02/16 00:41:24;;;;;;;40.57;22.53;;;;;;;2.28;74.78;100851.22;126297;1096;104222;-79
2022/02/16 00:43:55;;;;;;;42.33;22.00;;;;;;;2.29;74.81;100852.11;126381;1096;104169;-79
2022/02/16 00:46:28;;;;;;;40.37;20.83;;;;;;;2.27;74.80;100849.40;126315;1096;104245;-78
2022/02/16 00:48:59;;;;;;;44.43;21.47;;;;;;;2.26;76.82;100852.80;126306;1099;104156;-80
2022/02/16 00:51:30;;;;;;;43.15;21.60;;;;;;;2.25;75.29;100852.69;126259;1099;104162;-79
2022/02/16 00:54:02;;;;;;;42.90;21.80;;;;;;;2.25;74.82;100845.81;126330;1099;104300;-78
2022/02/16 00:56:36;;;;;;;39.73;20.43;;;;;;;2.25;76.38;100844.92;126319;1099;104242;-79
2022/02/16 00:59:09;;;;;;;42.53;22.23;;;;;;;2.25;75.79;100848.39;126269;1097;105362;-79
2022/02/16 01:01:42;;;;;;;45.23;21.75;;;;;;;2.26;76.11;100836.34;126338;1097;104224;-79
2022/02/16 01:04:13;;;;;;;45.53;22.80;;;;;;;2.28;75.67;100840.86;126293;1099;104242;-79
2022/02/16 01:06:45;;;;;;;41.63;21.40;;;;;;;2.32;74.92;100831.62;126400;1096;104223;-80
2022/02/16 01:09:17;;;;;;;42.27;21.23;;;;;;;2.35;75.56;100829.25;126325;1099;104178;-79
2022/02/16 01:11:49;;;;;;;43.37;22.17;;;;;;;2.39;75.06;100818.34;126313;1096;104175;-79
2022/02/16 01:14:21;;;;;;;41.23;22.37;;;;;;;2.41;75.29;100814.16;126339;1099;104140;-80
2022/02/16 01:17:10;;;;;;;42.80;22.73;;;;;;;2.45;75.50;100817.91;126276;1099;104275;-80
2022/02/16 01:20:17;;;;;;;40.17;21.10;;;;;;;2.46;75.34;100815.42;126042;1099;104329;-79
2022/02/16 01:22:50;;;;;;;40.98;21.37;;;;;;;2.47;75.32;100811.13;126273;1096;104258;-80
2022/02/16 01:25:23;;;;;;;36.80;21.33;;;;;;;2.48;75.28;100811.25;126351;1096;104139;-78
2022/02/16 01:27:55;;;;;;;42.77;22.20;;;;;;;2.50;75.26;100816.54;126383;1096;104139;-79
2022/02/16 01:30:28;;;;;;;42.63;22.10;;;;;;;2.50;75.00;100817.43;126290;1099;104281;-79
2022/02/16 01:33:03;;;;;;;43.37;21.33;;;;;;;2.52;75.56;100809.77;126265;1096;104156;-79
2022/02/16 01:35:41;;;;;;;45.37;22.83;;;;;;;2.51;75.53;100803.70;126284;1099;104201;-79
2022/02/16 01:38:14;;;;;;;44.67;22.83;;;;;;;2.53;74.95;100792.56;126308;1099;104166;-79
2022/02/16 01:40:49;;;;;;;43.20;22.83;;;;;;;2.53;74.96;100785.68;126347;1099;104277;-79
2022/02/16 01:43:20;;;;;;;44.03;22.40;;;;;;;2.55;75.31;100791.86;126233;1099;104309;-78
2022/02/16 01:45:53;;;;;;;47.23;23.77;;;;;;;2.56;74.87;100795.38;126203;1099;104168;-79
2022/02/16 01:48:27;;;;;;;44.15;22.35;;;;;;;2.57;74.92;100795.48;126254;1099;104303;-79
2022/02/16 01:50:58;;;;;;;47.50;22.83;;;;;;;2.57;75.14;100803.25;126249;1099;104307;-79
2022/02/16 01:53:40;;;;;;;41.23;22.93;;;;;;;2.58;75.08;100796.37;125713;1099;104201;-79
2022/02/16 01:56:12;;;;;;;46.10;25.27;;;;;;;2.59;75.34;100791.30;125502;1099;104326;-80
2022/02/16 01:58:46;;;;;;;42.87;23.60;;;;;;;2.60;75.52;100798.30;126144;1099;104265;-79
2022/02/16 02:01:18;;;;;;;48.63;23.73;;;;;;;2.62;75.22;100806.18;126282;1099;104252;-79
2022/02/16 02:04:04;;;;;;;47.53;24.73;;;;;;;2.63;74.84;100800.19;126155;1099;105839;-79
2022/02/16 02:06:36;;;;;;;49.00;25.63;;;;;;;2.64;75.26;100799.41;126247;1099;104149;-79
2022/02/16 02:09:13;;;;;;;43.50;23.53;;;;;;;2.64;74.96;100799.41;126247;1099;104287;-79
2022/02/16 02:11:45;;;;;;;40.27;22.60;;;;;;;2.63;75.48;100790.75;126206;1099;104397;-79
2022/02/16 02:14:18;;;;;;;43.20;23.10;;;;;;;2.64;75.12;100782.16;126186;1099;105438;-79
2022/02/16 02:17:15;;;;;;;45.37;23.03;;;;;;;2.65;76.06;100780.45;125917;1099;104146;-79
2022/02/16 02:19:47;;;;;;;45.50;24.17;;;;;;;2.65;75.23;100785.64;126267;1099;104182;-79
2022/02/16 02:22:19;;;;;;;45.73;24.47;;;;;;;2.65;75.74;100781.38;126208;1099;104268;-80
2022/02/16 02:24:50;;;;;;;46.73;25.43;;;;;;;2.65;75.55;100776.20;126308;1097;104171;-79
2022/02/16 02:27:22;;;;;;;48.43;24.33;;;;;;;2.66;75.33;100766.72;126314;1096;104147;-79
2022/02/16 02:29:53;;;;;;;47.80;25.67;;;;;;;2.65;75.45;100762.32;126344;1096;104192;-79
2022/02/16 02:32:25;;;;;;;49.23;24.43;;;;;;;2.65;75.79;100757.14;126282;1097;104617;-79
2022/02/16 02:34:56;;;;;;;44.10;24.57;;;;;;;2.63;75.17;100766.50;126211;1099;104347;-78
2022/02/16 02:37:28;;;;;;;49.43;24.63;;;;;;;2.62;75.25;100782.86;125453;1099;104201;-79
2022/02/16 02:39:59;;;;;;;46.83;24.33;;;;;;;2.56;75.71;100788.48;126233;1099;104775;-78
2022/02/16 02:42:31;;;;;;;44.67;23.93;;;;;;;2.51;76.57;100793.34;125324;1099;104310;-78
2022/02/16 02:45:06;;;;;;;51.40;25.53;;;;;;;2.47;75.74;100799.07;126165;1099;104165;-79
2022/02/16 02:47:38;;;;;;;49.67;25.27;;;;;;;2.46;75.44;100794.70;126272;1099;104661;-78
2022/02/16 02:50:10;;;;;;;48.57;26.10;;;;;;;2.45;75.11;100790.30;126190;1099;104396;-78
2022/02/16 02:52:42;;;;;;;45.33;24.90;;;;;;;2.42;75.37;100782.31;126262;1099;104140;-79
2022/02/16 02:55:15;;;;;;;49.77;25.87;;;;;;;2.39;75.90;100787.27;126136;1099;104422;-78
2022/02/16 02:57:48;;;;;;;50.57;27.07;;;;;;;2.38;75.45;100782.86;126228;1099;104185;-78
2022/02/16 03:00:20;;;;;;;51.13;26.23;;;;;;;2.37;75.57;100791.44;126211;1099;104322;-78
2022/02/16 03:02:53;;;;;;;48.03;25.67;;;;;;;2.34;75.45;100793.80;126223;1099;104296;-79
2022/02/16 03:05:24;;;;;;;50.20;27.20;;;;;;;2.31;75.63;100793.58;126174;1099;104376;-79
2022/02/16 03:07:56;;;;;;;48.97;25.80;;;;;;;2.30;75.67;100790.06;126231;1099;104309;-78
2022/02/16 03:10:27;;;;;;;54.73;27.40;;;;;;;2.30;75.69;100782.30;126214;1099;104182;-78
2022/02/16 03:12:59;;;;;;;51.50;25.50;;;;;;;2.29;76.00;100779.59;126225;1099;104277;-78
2022/02/16 03:15:36;;;;;;;48.97;24.57;;;;;;;2.28;75.66;100783.00;126284;1096;105491;-79
2022/02/16 03:18:07;;;;;;;45.57;24.37;;;;;;;2.26;76.25;100780.30;126324;1099;104274;-78
2022/02/16 03:20:38;;;;;;;47.13;25.07;;;;;;;2.25;76.09;100775.00;126259;1099;104156;-79
2022/02/16 03:23:10;;;;;;;48.10;24.87;;;;;;;2.26;76.73;100777.70;126313;1099;104187;-79
2022/02/16 03:25:42;;;;;;;46.60;24.37;;;;;;;2.26;75.97;100781.96;126310;1096;104230;-78
2022/02/16 03:28:14;;;;;;;51.57;26.57;;;;;;;2.23;76.18;100787.84;126307;1096;104293;-79
2022/02/16 03:30:47;;;;;;;47.98;25.52;;;;;;;2.23;76.08;100790.42;126284;1099;104175;-78
2022/02/16 03:33:19;;;;;;;49.40;26.60;;;;;;;2.21;75.99;100785.91;126264;1099;104223;-79
2022/02/16 03:35:51;;;;;;;51.40;27.43;;;;;;;2.20;75.86;100784.09;126279;1096;104189;-79
2022/02/16 03:38:22;;;;;;;52.40;26.27;;;;;;;2.19;75.66;100788.39;126355;1099;104192;-78
2022/02/16 03:40:54;;;;;;;49.00;24.97;;;;;;;2.20;76.15;100781.51;126326;1099;104197;-79
2022/02/16 03:43:26;;;;;;;53.23;25.83;;;;;;;2.22;76.62;100785.14;126392;1099;104165;-79
2022/02/16 03:45:57;;;;;;;48.33;24.23;;;;;;;2.25;76.29;100783.66;126255;1099;104281;-78
2022/02/16 03:48:29;;;;;;;47.23;25.80;;;;;;;2.28;76.37;100783.89;126325;1099;104209;-79
2022/02/16 03:51:00;;;;;;;47.60;24.97;;;;;;;2.31;76.53;100789.29;126338;1096;104234;-80
2022/02/16 03:53:32;;;;;;;52.03;25.47;;;;;;;2.36;76.35;100788.73;126288;1096;104784;-80
2022/02/16 03:56:04;;;;;;;51.17;25.80;;;;;;;2.38;76.19;100790.63;126330;1096;104484;-79
2022/02/16 03:58:36;;;;;;;48.90;25.43;;;;;;;2.41;76.52;100780.49;126314;1099;103444;-78
2022/02/16 04:01:08;;;;;;;47.70;25.27;;;;;;;2.43;76.40;100778.94;126356;1099;104248;-78
2022/02/16 04:03:39;;;;;;;48.03;25.17;;;;;;;2.46;76.47;100776.57;126256;1099;104235;-80
2022/02/16 04:06:12;;;;;;;45.90;24.20;;;;;;;2.48;76.53;100764.62;126239;1099;104194;-79
2022/02/16 04:08:45;;;;;;;48.03;25.10;;;;;;;2.50;76.62;100767.32;125448;1099;104249;-80
2022/02/16 04:11:20;;;;;;;48.67;25.27;;;;;;;2.52;76.42;100765.73;126361;1096;104143;-80
2022/02/16 04:13:54;;;;;;;49.85;25.05;;;;;;;2.54;76.37;100764.17;126294;1099;104165;-80
2022/02/16 04:16:26;;;;;;;48.78;24.50;;;;;;;2.54;76.82;100764.17;126200;1099;104156;-80
2022/02/16 04:18:58;;;;;;;49.27;24.50;;;;;;;2.55;76.83;100757.30;126214;1097;104153;-80
2022/02/16 04:21:29;;;;;;;47.40;24.87;;;;;;;2.57;76.40;100766.98;126319;1099;104172;-80
2022/02/16 04:24:01;;;;;;;49.50;25.83;;;;;;;2.58;76.45;100768.77;126265;1099;104152;-79
2022/02/16 04:26:34;;;;;;;48.00;24.63;;;;;;;2.62;76.24;100780.27;126264;1099;104175;-79
2022/02/16 04:29:05;;;;;;;49.17;24.63;;;;;;;2.62;76.91;100770.80;126329;1099;104300;-79
2022/02/16 04:31:41;;;;;;;44.83;24.43;;;;;;;2.64;76.49;100774.39;126259;1096;104191;-79
2022/02/16 04:34:13;;;;;;;47.57;24.00;;;;;;;2.65;76.73;100771.02;126345;1096;104159;-80
2022/02/16 04:36:46;;;;;;;44.93;25.05;;;;;;;2.67;77.21;100771.12;126238;1099;104133;-79
2022/02/16 04:39:19;;;;;;;50.83;24.77;;;;;;;2.67;76.70;100769.42;126327;1099;104312;-80
2022/02/16 04:41:51;;;;;;;47.83;23.07;;;;;;;2.68;77.53;100767.72;126361;1099;104351;-80
2022/02/16 04:44:22;;;;;;;46.07;22.80;;;;;;;2.67;76.83;100773.72;126276;1099;105155;-80
2022/02/16 04:47:00;;;;;;;46.47;23.00;;;;;;;2.65;76.78;100771.02;126235;1099;104614;-79
2022/02/16 04:49:32;;;;;;;49.27;22.80;;;;;;;2.63;77.08;100769.09;126309;1099;104330;-80
2022/02/16 04:52:03;;;;;;;49.20;23.47;;;;;;;2.61;78.10;100770.69;126385;1096;104306;-79
2022/02/16 04:54:36;;;;;;;48.03;23.50;;;;;;;2.56;78.04;100770.36;126360;1096;104322;-79
2022/02/16 04:57:08;;;;;;;48.17;23.60;;;;;;;2.53;78.95;100764.06;126188;1099;104159;-79
2022/02/16 04:59:45;;;;;;;44.50;20.97;;;;;;;2.51;78.96;100766.55;126262;1099;104130;-80
2022/02/16 05:02:18;;;;;;;50.20;24.53;;;;;;;2.48;77.46;100766.33;126267;1099;104201;-81
2022/02/16 05:04:50;;;;;;;48.43;25.13;;;;;;;2.48;78.51;100772.39;126329;1098;104652;-80
2022/02/16 05:07:22;;;;;;;49.53;23.87;;;;;;;2.49;78.01;100774.20;126228;1099;104297;-79
2022/02/16 05:09:55;;;;;;;47.43;24.27;;;;;;;2.50;77.85;100775.98;126343;1096;104153;-79
2022/02/16 05:12:27;;;;;;;48.55;24.95;;;;;;;2.50;77.93;100770.80;126363;1096;104168;-79
2022/02/16 05:15:00;;;;;;;52.17;24.83;;;;;;;2.50;78.36;100780.27;126343;1096;104149;-79
2022/02/16 05:17:32;;;;;;;45.50;23.27;;;;;;;2.48;78.90;100772.39;126308;1096;104155;-80
2022/02/16 05:20:05;;;;;;;51.00;25.50;;;;;;;2.49;77.21;100778.46;126338;1099;104335;-79
2022/02/16 05:22:36;;;;;;;50.37;23.87;;;;;;;2.49;77.84;100774.20;126258;1099;104248;-79
2022/02/16 05:25:09;;;;;;;46.60;23.20;;;;;;;2.53;78.03;100769.25;126273;1099;104060;-79
2022/02/16 05:27:41;;;;;;;45.33;23.70;;;;;;;2.51;78.04;100779.49;125967;1099;104165;-80
2022/02/16 05:30:14;;;;;;;48.10;25.53;;;;;;;2.52;78.01;100783.86;126165;1096;104213;-80
2022/02/16 05:32:45;;;;;;;48.13;24.30;;;;;;;2.54;78.26;100779.72;126064;1099;104207;-80
2022/02/16 05:35:17;;;;;;;49.20;24.33;;;;;;;2.55;77.64;100786.67;125896;1098;104269;-79
2022/02/16 05:37:48;;;;;;;50.87;25.23;;;;;;;2.56;78.45;100790.19;125885;1099;104329;-79
2022/02/16 05:40:20;;;;;;;49.57;24.77;;;;;;;2.55;77.89;100784.09;126145;1099;104169;-79
2022/02/16 05:42:51;;;;;;;54.23;24.93;;;;;;;2.58;78.22;100789.48;126057;1099;104306;-79
2022/02/16 05:45:23;;;;;;;50.70;24.80;;;;;;;2.60;77.35;100789.60;126096;1099;104220;-79
2022/02/16 05:47:54;;;;;;;51.20;24.90;;;;;;;2.60;78.25;100792.19;126045;1099;104149;-79
2022/02/16 05:50:29;;;;;;;52.13;25.90;;;;;;;2.59;78.43;100795.59;125973;1099;104252;-79
2022/02/16 05:53:00;;;;;;;51.47;26.40;;;;;;;2.59;77.83;100793.00;126251;1099;104188;-80
2022/02/16 05:55:33;;;;;;;57.27;29.20;;;;;;;2.59;78.55;100786.13;126337;1095;104193;-79
2022/02/16 05:58:06;;;;;;;54.17;26.63;;;;;;;2.62;78.03;100788.05;126235;1099;104300;-79
2022/02/16 06:00:38;;;;;;;53.03;26.73;;;;;;;2.63;78.37;100797.59;126242;1099;104278;-79
2022/02/16 06:03:10;;;;;;;54.67;27.27;;;;;;;2.62;78.11;100795.81;126249;1099;104143;-78
2022/02/16 06:05:46;;;;;;;47.23;22.73;;;;;;;2.64;78.82;100800.30;126114;1099;104223;-79
2022/02/16 06:08:17;;;;;;;47.40;23.83;;;;;;;2.60;79.50;100793.12;125939;1096;104163;-78
2022/02/16 06:10:49;;;;;;;51.23;24.53;;;;;;;2.60;78.59;100795.70;125989;1099;104348;-79
2022/02/16 06:13:24;;;;;;;51.77;24.97;;;;;;;2.62;78.02;100794.12;126023;1096;104230;-79
2022/02/16 06:15:58;;;;;;;50.87;22.97;;;;;;;2.64;78.83;100800.30;126030;1096;104168;-79
2022/02/16 06:18:30;;;;;;;48.25;24.18;;;;;;;2.66;78.64;100805.59;125818;1099;104216;-79
2022/02/16 06:21:02;;;;;;;53.20;25.13;;;;;;;2.69;78.01;100805.81;125895;1099;104267;-79
2022/02/16 06:23:36;;;;;;;52.77;24.57;;;;;;;2.72;78.20;100815.51;125981;1099;104364;-79
2022/02/16 06:26:08;;;;;;;;;;;;;;;2.72;78.62;100826.77;126178;1099;104192;-79
2022/02/16 06:28:42;;;;;;;45.23;21.97;;;;;;;2.72;78.94;100813.80;126274;1096;104249;-80
2022/02/16 06:31:17;;;;;;;52.23;24.17;;;;;;;2.69;78.65;100805.81;126168;1096;104217;-80
2022/02/16 06:33:48;;;;;;;48.00;24.37;;;;;;;2.71;78.79;100809.41;126198;1099;104203;-81
2022/02/16 06:36:22;;;;;;;50.30;23.17;;;;;;;2.73;79.36;100806.92;126174;1099;104271;-79
2022/02/16 06:38:56;;;;;;;49.80;24.40;;;;;;;2.73;78.92;100810.44;126064;1099;104271;-79
2022/02/16 06:41:32;;;;;;;48.42;23.77;;;;;;;2.78;78.51;100802.99;125897;1099;104253;-78
2022/02/16 06:44:05;;;;;;;52.03;24.90;;;;;;;2.85;78.56;100800.03;125900;1099;104313;-78
2022/02/16 06:46:45;;;;;;;54.20;26.17;;;;;;;2.88;78.78;100801.17;125808;1099;104229;-78
2022/02/16 06:49:21;;;;;;;51.57;25.10;;;;;;;2.94;78.74;100799.80;125271;1099;104302;-78
2022/02/16 06:51:58;;;;;;;54.07;25.27;;;;;;;3.03;78.89;100800.45;125200;1099;104172;-79
2022/02/16 06:54:32;;;;;;;47.78;24.80;;;;;;;3.14;78.64;100808.98;125952;1099;104175;-78
2022/02/16 06:57:06;;;;;;;50.10;24.53;;;;;;;3.17;78.72;100797.13;125827;1099;104182;-78
2022/02/16 06:59:55;;;;;;;49.90;24.07;;;;;;;3.23;79.00;100800.14;125423;1099;104251;-79
2022/02/16 07:02:28;;;;;;;53.57;25.30;;;;;;;3.24;77.67;100799.36;125064;1102;104316;-79
2022/02/16 07:05:14;;;;;;;52.83;25.93;;;;;;;3.32;77.82;100793.78;125080;1102;104303;-78
2022/02/16 07:07:50;;;;;;;47.83;24.00;;;;;;;3.37;78.47;100780.35;125214;1102;104267;-78
2022/02/16 07:10:34;;;;;;;47.27;23.87;;;;;;;3.41;77.97;100778.86;125017;1102;103167;-78
2022/02/16 07:13:15;;;;;;;52.95;26.30;;;;;;;3.46;77.83;100787.88;124967;1102;104379;-78
2022/02/16 07:15:53;;;;;;;49.30;25.03;;;;;;;3.54;78.24;100781.52;125032;1102;102846;-78
2022/02/16 07:18:30;;;;;;;49.87;25.87;;;;;;;3.61;78.39;100785.41;125052;1102;104188;-78
2022/02/16 07:21:41;;;;;;;49.73;25.20;;;;;;;3.69;77.84;100778.16;125626;1099;104330;-78
2022/02/16 07:24:19;;;;;;;46.33;24.10;;;;;;;3.67;78.05;100770.27;125251;1099;104393;-78
2022/02/16 07:26:55;;;;;;;49.63;26.70;;;;;;;3.68;77.16;100769.48;125127;1099;104433;-78
2022/02/16 07:29:29;;;;;;;47.20;23.97;;;;;;;3.75;78.46;100763.88;125157;1099;104995;-77
2022/02/16 07:32:06;;;;;;;49.83;26.30;;;;;;;3.87;77.18;100770.72;126054;1099;104265;-78
2022/02/16 07:34:46;;;;;;;44.20;23.40;;;;;;;4.02;77.56;100781.20;125834;1099;104290;-78
2022/02/16 07:37:20;;;;;;;50.77;26.17;;;;;;;4.18;77.94;100776.23;125824;1099;104281;-79
2022/02/16 07:40:04;;;;;;;49.37;25.23;;;;;;;4.33;78.19;100776.31;125791;1099;104322;-78
2022/02/16 07:42:39;;;;;;;49.20;26.20;;;;;;;4.43;77.78;100772.64;125756;1099;104168;-78
2022/02/16 07:45:41;;;;;;;44.73;23.43;;;;;;;4.44;77.33;100771.82;125038;1102;104357;-78
2022/02/16 07:48:15;;;;;;;50.48;25.77;;;;;;;4.45;77.61;100776.23;125744;1099;104178;-78
2022/02/16 07:50:48;;;;;;;45.53;24.00;;;;;;;4.54;77.69;100779.42;125908;1099;104251;-79
2022/02/16 07:53:44;;;;;;;47.53;25.43;;;;;;;4.60;77.63;100773.73;125899;1099;104290;-77
2022/02/16 07:56:19;;;;;;;48.63;25.87;;;;;;;4.59;77.27;100770.20;125964;1099;104790;-78
2022/02/16 07:58:54;;;;;;;46.33;25.33;;;;;;;4.64;77.53;100776.63;125841;1098;104146;-79
2022/02/16 08:01:33;;;;;;;53.10;27.30;;;;;;;4.75;76.93;100778.98;125854;1099;104156;-79
2022/02/16 08:04:18;;;;;;;47.90;26.53;;;;;;;4.92;76.93;100783.55;125955;1099;104166;-80
2022/02/16 08:07:08;;;;;;;50.70;26.45;;;;;;;4.99;76.73;100770.13;125906;1099;104213;-79
2022/02/16 08:09:53;;;;;;;47.13;25.60;;;;;;;5.08;76.30;100768.89;125313;1099;104339;-79
2022/02/16 08:12:29;;;;;;;48.73;27.70;;;;;;;5.14;76.79;100766.67;125791;1099;107948;-80
2022/02/16 08:15:04;;;;;;;44.60;25.70;;;;;;;5.12;76.51;100763.09;125172;1099;104264;-79
2022/02/16 08:17:42;;;;;;;50.53;27.30;;;;;;;5.08;76.47;100763.70;125848;1099;104171;-78
2022/02/16 08:20:31;;;;;;;50.23;25.60;;;;;;;5.08;76.37;100758.48;125978;1099;104147;-79
2022/02/16 08:23:30;;;;;;;;;;;;;;;4.97;74.83;100752.63;125682;1098;117845;-79
2022/02/16 08:26:08;;;;;;;49.30;25.27;;;;;;;5.00;75.61;100751.13;125912;1099;104303;-79
2022/02/16 08:28:44;;;;;;;47.47;25.93;;;;;;;5.03;75.25;100747.80;125827;1099;104189;-79
2022/02/16 08:31:20;;;;;;;45.77;24.17;;;;;;;5.15;75.52;100729.46;125193;1099;104179;-79
2022/02/16 08:34:07;;;;;;;46.30;26.27;;;;;;;5.26;74.89;100732.72;126036;1099;104147;-80
2022/02/16 08:36:55;;;;;;;47.83;25.43;;;;;;;5.38;75.92;100731.75;126198;1099;104299;-80
2022/02/16 08:39:34;;;;;;;49.63;24.97;;;;;;;5.51;75.07;100735.09;126137;1099;104377;-79
2022/02/16 08:42:08;;;;;;;46.53;24.77;;;;;;;5.58;75.00;100732.05;126018;1099;102660;-80
2022/02/16 08:44:46;;;;;;;45.80;25.40;;;;;;;5.61;75.55;100736.52;126023;1099;104143;-78
2022/02/16 08:47:21;;;;;;;44.97;24.23;;;;;;;5.60;75.32;100727.83;125982;1098;104185;-79
2022/02/16 08:50:12;;;;;;;47.10;26.83;;;;;;;5.58;75.20;100724.25;125802;1099;102206;-79
2022/02/16 08:52:49;;;;;;;46.97;25.37;;;;;;;5.63;75.29;100714.98;126051;1099;104246;-79
2022/02/16 08:55:26;;;;;;;49.83;24.37;;;;;;;5.75;74.96;100720.92;126144;1099;104236;-80
2022/02/16 08:58:05;;;;;;;46.23;25.00;;;;;;;5.90;75.14;100717.41;126096;1099;104191;-79
2022/02/16 09:00:42;;;;;;;40.90;21.00;;;;;;;6.07;73.87;100716.69;126095;1099;101758;-79
2022/02/16 09:03:20;;;;;;;46.20;24.00;;;;;;;6.22;74.64;100710.58;126171;1099;104384;-80
2022/02/16 09:05:59;;;;;;;37.20;21.60;;;;;;;6.37;74.67;100708.80;126070;1099;104309;-80
2022/02/16 09:08:35;;;;;;;40.00;23.07;;;;;;;6.60;74.85;100719.63;126072;1099;104192;-78
2022/02/16 09:11:12;;;;;;;41.90;22.43;;;;;;;6.75;73.67;100711.76;125924;1099;104137;-80
2022/02/16 09:14:04;;;;;;;;;;;;;;;;;;;;;
2022/02/16 09:16:38;;;;;;;41.67;22.43;;;;;;;7.02;73.34;100700.17;125802;1096;104255;-80
2022/02/16 09:19:16;;;;;;;43.50;22.57;;;;;;;7.14;72.89;100692.11;125876;1096;104175;-80
2022/02/16 09:21:51;;;;;;;42.90;22.30;;;;;;;7.26;73.12;100693.56;125803;1099;104169;-79
2022/02/16 09:24:25;;;;;;;43.83;22.93;;;;;;;7.36;72.63;100677.56;125187;1099;104178;-79
2022/02/16 09:26:57;;;;;;;44.83;21.93;;;;;;;7.46;71.58;100677.20;125898;1099;104278;-81
2022/02/16 09:29:36;;;;;;;40.77;22.30;;;;;;;7.56;71.48;100678.59;126044;1099;104294;-80
2022/02/16 09:32:14;;;;;;;41.50;22.77;;;;;;;7.66;72.55;100674.72;125790;1099;104187;-82
2022/02/16 09:35:09;;;;;;;40.27;22.20;;;;;;;7.76;72.01;100668.22;125206;1099;104252;-80
2022/02/16 09:37:43;;;;;;;40.47;20.87;;;;;;;7.87;71.22;100661.84;125313;1100;104325;-81
2022/02/16 09:40:20;;;;;;;39.73;22.27;;;;;;;7.97;72.26;100664.06;126124;1099;104407;-79
2022/02/16 09:42:55;;;;;;;39.97;21.97;;;;;;;8.06;71.88;100654.05;125322;1099;105754;-80
2022/02/16 09:45:37;;;;;;;40.10;21.48;;;;;;;8.17;71.67;100656.30;126166;1099;104217;-80
2022/02/16 09:48:17;;;;;;;41.07;22.70;;;;;;;8.27;72.29;100650.66;126050;1099;104329;-80
2022/02/16 09:50:52;;;;;;;38.30;20.70;;;;;;;8.34;71.54;100644.03;126006;1099;104303;-80
2022/02/16 09:53:24;;;;;;;39.43;22.90;;;;;;;8.42;72.26;100653.12;125892;1099;104156;-80
2022/02/16 09:55:59;;;;;;;42.40;22.50;;;;;;;8.49;70.86;100638.63;125940;1096;104175;-80
2022/02/16 09:58:29;;;;;;;;;;;;;;;8.57;70.16;100640.79;126080;1096;104163;-79
2022/02/16 10:01:06;;;;;;;36.23;20.77;;;;;;;8.66;71.53;100640.30;126010;1096;104172;-79
2022/02/16 10:03:41;;;;;;;45.40;23.00;;;;;;;8.79;71.45;100639.16;126145;1099;104245;-80
2022/02/16 10:06:37;;;;;;;39.93;21.00;;;;;;;8.87;70.83;100637.77;126237;1099;104147;-81
2022/02/16 10:09:23;;;;;;;36.83;20.40;;;;;;;8.99;71.35;100627.84;125963;1099;104172;-81
2022/02/16 10:12:00;;;;;;;38.60;21.73;;;;;;;9.12;71.05;100628.38;125952;1099;104363;-78
2022/02/16 10:14:35;;;;;;;42.83;22.53;;;;;;;9.15;69.82;100628.52;126110;1099;104189;-78
2022/02/16 10:17:21;;;;;;;39.30;22.42;;;;;;;9.20;69.28;100626.09;125830;1096;104245;-78
2022/02/16 10:19:56;;;;;;;40.73;22.33;;;;;;;9.29;70.55;100629.11;126115;1099;105304;-78
2022/02/16 10:22:30;;;;;;;39.57;20.30;;;;;;;9.39;70.66;100617.30;125895;1096;104185;-78
2022/02/16 10:25:22;;;;;;;35.08;19.80;;;;;;;9.47;69.70;100603.70;125776;1096;104563;-79
2022/02/16 10:28:13;;;;;;;36.65;20.40;;;;;;;9.54;69.12;100605.73;125725;1099;104134;-79
2022/02/16 10:30:59;;;;;;;37.10;20.37;;;;;;;9.66;69.94;100596.58;125999;1099;104200;-80
2022/02/16 10:33:44;;;;;;;39.57;21.00;;;;;;;9.72;69.17;100591.59;125928;1099;104144;-79
2022/02/16 10:36:37;;;;;;;37.33;21.20;;;;;;;9.73;68.61;100589.88;125862;1099;104211;-80
2022/02/16 10:39:30;;;;;;;38.10;20.60;;;;;;;9.83;69.46;100584.16;125954;1096;104153;-78
2022/02/16 10:42:04;;;;;;;38.63;21.13;;;;;;;9.97;69.01;100572.52;125797;1096;104188;-79
2022/02/16 10:44:36;;;;;;;36.20;20.43;;;;;;;10.07;67.76;100566.78;125891;1099;104235;-78
2022/02/16 10:47:10;;;;;;;36.50;20.10;;;;;;;10.16;68.68;100563.63;125948;1099;104143;-78
2022/02/16 10:49:47;;;;;;;35.90;20.97;;;;;;;10.24;68.77;100556.06;125956;1099;104148;-79
2022/02/16 10:52:23;;;;;;;37.87;21.23;;;;;;;10.37;69.32;100544.32;125758;1099;104322;-78
2022/02/16 10:54:58;;;;;;;39.37;21.73;;;;;;;10.48;68.44;100539.47;125157;1099;104262;-79
2022/02/16 10:57:30;;;;;;;37.83;21.17;;;;;;;10.55;67.81;100537.12;125074;1099;104191;-80
2022/02/16 11:00:03;;;;;;;38.30;20.90;;;;;;;10.56;67.56;100530.14;125624;1099;104672;-79
2022/02/16 11:02:40;;;;;;;39.77;21.73;;;;;;;10.55;67.33;100517.84;125782;1099;104182;-79
2022/02/16 11:05:12;;;;;;;37.93;20.80;;;;;;;10.55;67.38;100509.98;125624;1099;104262;-80
2022/02/16 11:07:46;;;;;;;37.87;21.97;;;;;;;10.50;66.97;100504.59;125063;1099;104271;-78
2022/02/16 11:10:23;;;;;;;38.35;19.62;;;;;;;10.48;67.13;100494.87;125612;1099;104773;-78
2022/02/16 11:12:56;;;;;;;38.53;22.17;;;;;;;10.50;66.38;100491.48;125083;1102;104176;-78
2022/02/16 11:15:29;;;;;;;36.67;20.00;;;;;;;10.57;66.58;100496.09;125088;1099;104214;-78
2022/02/16 11:18:15;;;;;;;34.53;19.98;;;;;;;10.67;66.86;100485.92;125067;1099;107786;-77
2022/02/16 11:21:05;;;;;;;33.97;18.93;;;;;;;10.77;66.07;100483.67;126141;1099;104621;-78
2022/02/16 11:23:44;;;;;;;36.97;19.97;;;;;;;10.76;65.34;100494.11;125629;1096;104165;-80
2022/02/16 11:26:37;;;;;;;35.73;20.47;;;;;;;10.80;64.86;100490.77;125643;1096;104673;-79
2022/02/16 11:29:43;;;;;;;39.30;20.93;;;;;;;10.90;64.72;100481.47;125852;1099;104182;-79
2022/02/16 11:32:30;;;;;;;37.97;20.03;;;;;;;11.07;65.21;100480.30;125791;1099;104201;-79
2022/02/16 11:35:24;;;;;;;39.13;21.23;;;;;;;11.19;64.22;100474.56;125783;1097;104175;-79
2022/02/16 11:38:10;;;;;;;34.20;19.67;;;;;;;11.35;63.49;100464.56;125817;1099;104102;-79
2022/02/16 11:40:58;;;;;;;35.73;19.63;;;;;;;11.44;62.79;100463.10;125878;1096;102328;-81